Time;durP1;ratioP1;P1;durP2;ratioP2;P2;SDS_P1;SDS_P2;PMS_P1;PMS_P2;Temp;Humidity;BMP_temperature;BMP_pressure;BME280_temperature;BME280_humidity;BME280_pressure;Samples;Min_cycle;Max_cycle;Signal;HPM_P1;HPM_P2
2021/05/08 00:00:07;;;;;;;2.25;2.05;;;;;;;19.19;53.45;98750.41;1812691;79;21130;-69
2021/05/08 00:02:34;;;;;;;2.98;2.05;;;;;;;19.19;53.42;98750.95;1812715;79;21143;-72
2021/05/08 00:05:04;;;;;;;3.10;1.80;;;;;;;19.19;53.45;98764.41;1812708;79;21375;-71
2021/05/08 00:07:31;;;;;;;2.02;1.82;;;;;;;19.18;53.48;98758.73;1812621;79;21565;-71
2021/05/08 00:09:59;;;;;;;2.22;2.00;;;;;;;19.17;53.48;98766.55;1812716;79;21098;-69
2021/05/08 00:12:26;;;;;;;2.17;1.80;;;;;;;19.17;53.51;98761.97;1812755;79;21631;-70
2021/05/08 00:14:55;;;;;;;3.33;2.40;;;;;;;19.17;53.53;98739.62;1812740;79;21084;-70
2021/05/08 00:17:24;;;;;;;2.80;2.30;;;;;;;19.17;53.50;98720.78;1812602;79;21170;-69
2021/05/08 00:19:52;;;;;;;2.25;2.00;;;;;;;19.15;53.50;98712.95;1812627;79;21647;-68
2021/05/08 00:22:20;;;;;;;1.95;1.82;;;;;;;19.15;53.50;98726.41;1812651;79;22017;-69
2021/05/08 00:24:48;;;;;;;1.90;1.72;;;;;;;19.15;53.58;98733.13;1812687;79;21135;-69
2021/05/08 00:27:17;;;;;;;2.30;2.10;;;;;;;19.15;53.58;98745.25;1812665;79;21114;-68
2021/05/08 00:29:45;;;;;;;2.45;2.25;;;;;;;19.14;53.62;98752.22;1812633;78;21192;-69
2021/05/08 00:32:13;;;;;;;2.47;2.27;;;;;;;19.15;53.64;98755.21;1813769;78;21158;-69
2021/05/08 00:34:42;;;;;;;2.20;1.87;;;;;;;19.14;53.63;98745.49;1814673;79;21154;-69
2021/05/08 00:37:12;;;;;;;2.55;2.02;;;;;;;19.13;53.70;98743.34;1814685;79;22096;-69
2021/05/08 00:39:39;;;;;;;2.27;2.08;;;;;;;19.13;53.64;98734.45;1814798;79;21120;-70
2021/05/08 00:42:07;;;;;;;2.17;1.98;;;;;;;19.13;53.70;98727.73;1814656;79;21180;-69
2021/05/08 00:44:38;;;;;;;2.22;2.05;;;;;;;19.08;53.69;98723.06;1814649;79;21170;-69
2021/05/08 00:47:05;;;;;;;2.55;2.08;;;;;;;19.12;53.71;98718.01;1814656;79;21142;-69
2021/05/08 00:49:34;;;;;;;2.22;2.02;;;;;;;19.10;53.73;98712.87;1814801;79;21103;-70
2021/05/08 00:52:01;;;;;;;1.77;1.67;;;;;;;19.11;53.78;98720.43;1814677;79;21178;-68
2021/05/08 00:54:30;;;;;;;2.85;2.22;;;;;;;19.10;53.82;98706.67;1814660;79;21642;-68
2021/05/08 00:56:58;;;;;;;2.33;2.12;;;;;;;19.10;53.79;98697.25;1814583;79;21167;-69
2021/05/08 00:59:27;;;;;;;2.17;1.98;;;;;;;19.10;53.78;98701.30;1785812;79;21131;-70
2021/05/08 01:01:55;;;;;;;2.00;1.80;;;;;;;19.08;53.80;98698.04;1814667;79;21159;-70
2021/05/08 01:04:23;;;;;;;2.12;1.90;;;;;;;19.09;53.86;98695.64;1814644;79;21176;-69
2021/05/08 01:06:50;;;;;;;2.20;2.05;;;;;;;19.08;53.84;98702.08;1814710;79;21382;-70
2021/05/08 01:09:19;;;;;;;2.12;1.92;;;;;;;19.07;53.90;98696.42;1814606;79;21156;-70
2021/05/08 01:11:47;;;;;;;1.77;1.67;;;;;;;19.07;53.88;98701.81;1814665;79;21138;-70
2021/05/08 01:14:16;;;;;;;3.05;1.82;;;;;;;19.07;53.93;98703.16;1814617;79;21158;-70
2021/05/08 01:16:45;;;;;;;2.27;2.08;;;;;;;19.05;53.94;98709.59;1814749;79;21115;-69
2021/05/08 01:19:14;;;;;;;2.08;1.82;;;;;;;19.05;53.97;98721.70;1785667;79;21174;-69
2021/05/08 01:21:42;;;;;;;2.15;1.95;;;;;;;19.05;53.98;98732.47;1814582;79;21174;-69
2021/05/08 01:24:11;;;;;;;3.55;2.05;;;;;;;19.04;53.98;98727.33;1814639;79;22093;-70
2021/05/08 01:26:39;;;;;;;2.50;2.30;;;;;;;19.04;54.01;98728.67;1814737;79;21151;-68
2021/05/08 01:29:08;;;;;;;3.90;2.00;;;;;;;19.04;54.02;98725.98;1814714;79;21127;-70
2021/05/08 01:31:35;;;;;;;2.22;2.02;;;;;;;19.02;54.07;98730.25;1815363;78;22270;-69
2021/05/08 01:34:03;;;;;;;2.05;1.87;;;;;;;19.02;54.06;98736.17;1817857;79;21642;-69
2021/05/08 01:36:32;;;;;;;2.25;2.15;;;;;;;19.02;54.12;98750.44;1805202;77;21170;-70
2021/05/08 01:39:03;;;;;;;2.10;1.90;;;;;;;19.02;54.10;98737.52;1798214;79;21272;-69
2021/05/08 01:41:33;;;;;;;1.95;1.75;;;;;;;19.01;54.12;98729.98;1798216;78;21119;-69
2021/05/08 01:46:43;;;;;;;2.20;1.98;;;;;;;19.03;54.12;98718.44;1808442;77;22146;-70
2021/05/08 01:49:11;;;;;;;2.02;1.82;;;;;;;19.05;54.01;98724.93;1793536;79;21130;-69
2021/05/08 01:51:39;;;;;;;2.77;1.80;;;;;;;19.04;54.03;98728.16;1800045;79;23534;-69
2021/05/08 01:54:06;;;;;;;1.80;1.70;;;;;;;19.04;54.08;98723.28;1770739;79;21053;-69
2021/05/08 01:56:34;;;;;;;2.15;1.95;;;;;;;19.02;54.07;98726.76;1769011;79;21161;-68
2021/05/08 01:59:03;;;;;;;2.00;1.90;;;;;;;19.02;54.08;98733.48;1744827;79;21162;-69
2021/05/08 02:01:31;;;;;;;1.98;1.80;;;;;;;19.01;54.13;98734.56;1799783;79;21180;-69
2021/05/08 02:03:59;;;;;;;1.72;1.62;;;;;;;18.99;54.12;98726.73;1799108;79;21400;-69
2021/05/08 02:06:27;;;;;;;2.12;1.92;;;;;;;18.99;54.20;98734.00;1799809;79;21175;-69
2021/05/08 02:09:10;;;;;;;2.33;2.12;;;;;;;19.02;54.22;98735.64;1832138;77;22699;-70
2021/05/08 02:11:40;;;;;;;1.80;1.70;;;;;;;18.97;54.21;98742.86;1784240;79;21018;-70
2021/05/08 02:14:08;;;;;;;1.95;1.85;;;;;;;18.97;54.26;98736.13;1795464;78;21343;-68
2021/05/08 02:16:36;;;;;;;2.62;1.90;;;;;;;18.96;54.23;98728.56;1787076;79;21154;-69
2021/05/08 02:19:03;;;;;;;2.62;2.10;;;;;;;18.95;54.25;98725.60;1815878;79;21144;-70
2021/05/08 02:21:34;;;;;;;1.87;1.75;;;;;;;18.95;54.29;98728.80;1815819;79;21423;-69
2021/05/08 02:24:05;;;;;;;2.27;2.08;;;;;;;18.95;54.29;98735.53;1817479;79;21146;-70
2021/05/08 02:26:33;;;;;;;1.82;1.65;;;;;;;18.94;54.30;98737.41;1815798;79;21562;-70
2021/05/08 02:29:00;;;;;;;2.47;2.00;;;;;;;18.93;54.37;98741.19;1816031;79;21153;-68
2021/05/08 02:31:28;;;;;;;2.02;1.82;;;;;;;18.93;54.41;98734.45;1782547;79;21180;-70
2021/05/08 02:33:55;;;;;;;2.15;1.85;;;;;;;18.92;54.39;98735.50;1815141;79;21189;-69
2021/05/08 02:36:23;;;;;;;2.95;2.20;;;;;;;18.92;54.43;98732.81;1813278;77;21133;-69
2021/05/08 02:38:52;;;;;;;2.47;2.27;;;;;;;18.92;54.45;98729.31;1792781;79;21335;-69
2021/05/08 02:41:19;;;;;;;2.08;1.90;;;;;;;18.91;54.40;98732.55;1809898;78;21138;-70
2021/05/08 02:43:47;;;;;;;2.30;1.85;;;;;;;18.91;54.44;98735.23;1818571;78;21121;-70
2021/05/08 02:46:16;;;;;;;3.83;2.12;;;;;;;18.90;54.45;98724.17;1818510;78;22018;-70
2021/05/08 02:48:44;;;;;;;2.33;1.98;;;;;;;18.90;54.51;98729.55;1818449;78;21122;-69
2021/05/08 02:51:12;;;;;;;1.85;1.75;;;;;;;18.89;54.52;98719.03;1816222;78;21360;-68
2021/05/08 02:53:41;;;;;;;2.02;1.60;;;;;;;18.89;54.53;98721.72;1818439;78;21130;-70
2021/05/08 02:56:09;;;;;;;2.15;1.50;;;;;;;18.89;54.55;98720.37;1818500;78;21156;-69
2021/05/08 02:58:38;;;;;;;2.05;1.85;;;;;;;18.86;54.51;98715.78;1818259;78;21157;-70
2021/05/08 03:01:06;;;;;;;1.98;1.77;;;;;;;18.86;54.55;98715.78;1818594;78;21126;-69
2021/05/08 03:03:33;;;;;;;2.98;2.00;;;;;;;18.87;54.63;98727.34;1818494;78;21430;-70
2021/05/08 03:06:01;;;;;;;2.10;1.90;;;;;;;18.87;54.61;98728.69;1818524;78;21158;-69
2021/05/08 03:08:32;;;;;;;2.05;1.85;;;;;;;18.86;54.62;98725.73;1816913;78;21153;-70
2021/05/08 03:11:01;;;;;;;2.30;1.95;;;;;;;18.86;54.66;98724.39;1795968;78;21184;-69
2021/05/08 03:13:29;;;;;;;2.10;1.80;;;;;;;18.85;54.67;98716.02;1816603;79;21129;-69
2021/05/08 03:15:56;;;;;;;2.30;2.10;;;;;;;18.85;54.68;98695.33;1818405;78;21441;-68
2021/05/08 03:18:25;;;;;;;1.92;1.75;;;;;;;18.85;54.70;98685.08;1824167;78;21126;-70
2021/05/08 03:20:53;;;;;;;2.17;1.98;;;;;;;18.85;54.69;98693.14;1812443;78;21160;-70
2021/05/08 03:23:21;;;;;;;2.15;1.95;;;;;;;18.84;54.74;98692.88;1803475;78;21153;-70
2021/05/08 03:25:50;;;;;;;2.72;2.00;;;;;;;18.83;54.77;98704.19;1815925;78;21140;-70
2021/05/08 03:28:18;;;;;;;2.15;1.75;;;;;;;18.84;54.77;98714.41;1815800;78;21185;-69
2021/05/08 03:30:47;;;;;;;2.10;1.90;;;;;;;18.83;54.77;98716.80;1815845;78;21161;-69
2021/05/08 03:33:15;;;;;;;2.08;1.87;;;;;;;18.83;54.82;98723.52;1815899;78;21118;-69
2021/05/08 03:35:43;;;;;;;2.10;1.95;;;;;;;18.83;54.82;98721.67;1798918;78;21163;-69
2021/05/08 03:38:11;;;;;;;1.92;1.77;;;;;;;18.83;54.83;98712.25;1801018;78;21118;-68
2021/05/08 03:40:40;;;;;;;2.15;1.87;;;;;;;18.84;54.87;98709.02;1818990;78;21371;-69
2021/05/08 03:43:07;;;;;;;2.22;2.02;;;;;;;18.83;54.92;98710.91;1797496;78;21597;-69
2021/05/08 03:45:36;;;;;;;2.00;1.90;;;;;;;18.83;54.91;98712.77;1791242;78;21176;-69
2021/05/08 03:48:06;;;;;;;1.75;1.65;;;;;;;18.83;54.93;98712.77;1791225;78;21200;-68
2021/05/08 03:50:34;;;;;;;2.10;1.90;;;;;;;18.83;54.89;98716.29;1801109;78;21150;-70
2021/05/08 03:53:02;;;;;;;2.40;2.02;;;;;;;18.83;54.91;98716.80;1803706;78;22176;-69
2021/05/08 03:55:30;;;;;;;2.67;2.47;;;;;;;18.82;54.95;98711.15;1798579;78;21549;-69
2021/05/08 03:57:58;;;;;;;2.17;1.98;;;;;;;18.82;54.99;98701.19;1805950;78;21331;-69
2021/05/08 04:00:25;;;;;;;2.20;1.57;;;;;;;18.82;55.00;98707.11;1796361;78;21161;-70
2021/05/08 04:02:53;;;;;;;2.22;1.87;;;;;;;18.82;54.95;98713.30;1820022;78;21161;-69
2021/05/08 04:05:20;;;;;;;2.10;1.90;;;;;;;18.82;55.03;98710.61;1815778;78;21365;-69
2021/05/08 04:07:48;;;;;;;2.02;1.82;;;;;;;18.83;55.00;98720.33;1815617;78;21228;-70
2021/05/08 04:10:16;;;;;;;2.20;2.00;;;;;;;18.83;54.97;98722.18;1815270;78;21212;-70
2021/05/08 04:12:44;;;;;;;1.80;1.70;;;;;;;18.84;55.03;98715.75;1827151;78;21621;-69
2021/05/08 04:15:12;;;;;;;2.30;2.10;;;;;;;18.84;55.02;98724.62;1828909;78;21159;-71
2021/05/08 04:17:39;;;;;;;3.10;2.10;;;;;;;18.84;55.02;98732.70;1828907;78;21349;-69
2021/05/08 04:20:08;;;;;;;2.10;1.90;;;;;;;18.85;55.05;98733.51;1828812;77;21167;-69
2021/05/08 04:22:35;;;;;;;1.82;1.72;;;;;;;18.86;55.03;98731.92;1828844;78;21119;-70
2021/05/08 04:25:04;;;;;;;2.45;2.25;;;;;;;18.86;55.03;98737.30;1828965;78;21186;-69
2021/05/08 04:27:31;;;;;;;2.17;1.90;;;;;;;18.88;55.01;98744.33;1828817;78;21143;-70
2021/05/08 04:29:58;;;;;;;2.20;2.00;;;;;;;18.89;55.08;98743.25;1828947;78;21592;-69
2021/05/08 04:32:28;;;;;;;2.45;2.25;;;;;;;18.89;55.05;98742.74;1828831;77;21162;-69
2021/05/08 04:34:55;;;;;;;2.40;2.20;;;;;;;18.90;55.07;98746.24;1828889;77;21123;-69
2021/05/08 04:37:23;;;;;;;2.55;2.35;;;;;;;18.88;55.01;98753.20;1828826;78;21132;-69
2021/05/08 04:39:52;;;;;;;2.22;2.02;;;;;;;18.90;55.04;98756.47;1828866;78;21150;-69
2021/05/08 04:42:20;;;;;;;2.70;2.27;;;;;;;18.91;55.06;98761.31;1828887;77;22165;-70
2021/05/08 04:44:47;;;;;;;2.27;2.08;;;;;;;18.90;55.04;98761.84;1828842;78;21107;-69
2021/05/08 04:47:16;;;;;;;1.95;1.75;;;;;;;18.91;55.06;98766.19;1828851;78;21162;-70
2021/05/08 04:49:44;;;;;;;2.52;2.33;;;;;;;18.91;55.10;98761.31;1828827;77;21139;-69
2021/05/08 04:52:12;;;;;;;2.25;2.05;;;;;;;18.93;55.05;98757.84;1828789;78;21147;-70
2021/05/08 04:54:40;;;;;;;2.10;1.85;;;;;;;18.92;55.11;98762.41;1828870;78;22032;-70
2021/05/08 04:57:07;;;;;;;2.30;2.02;;;;;;;18.94;55.04;98767.02;1828793;78;21122;-69
2021/05/08 04:59:35;;;;;;;2.42;2.22;;;;;;;18.94;55.13;98773.74;1828835;78;21100;-68
2021/05/08 05:02:03;;;;;;;2.12;1.92;;;;;;;18.95;55.10;98772.70;1828821;78;21151;-68
2021/05/08 05:04:30;;;;;;;2.27;2.08;;;;;;;18.95;55.09;98769.17;1828905;78;21127;-69
2021/05/08 05:06:58;;;;;;;2.02;1.82;;;;;;;18.95;55.04;98776.73;1828878;78;21353;-69
2021/05/08 05:09:28;;;;;;;2.30;2.10;;;;;;;18.95;55.08;98784.81;1826873;76;21160;-69
2021/05/08 05:11:55;;;;;;;2.75;2.40;;;;;;;18.96;55.07;98782.92;1826253;78;21146;-68
2021/05/08 05:14:23;;;;;;;2.30;2.10;;;;;;;18.96;55.07;98791.00;1771785;80;21160;-70
2021/05/08 05:16:51;;;;;;;2.50;2.20;;;;;;;18.96;55.07;98798.53;1793862;80;21118;-70
2021/05/08 05:19:19;;;;;;;2.17;1.95;;;;;;;18.96;55.06;98794.50;1809086;78;21359;-69
2021/05/08 05:21:46;;;;;;;2.40;2.20;;;;;;;18.96;55.03;98788.30;1802842;78;21180;-69
2021/05/08 05:24:14;;;;;;;2.92;2.60;;;;;;;18.97;55.07;98781.34;1818648;78;21471;-69
2021/05/08 05:26:42;;;;;;;3.12;2.40;;;;;;;18.97;55.01;98779.99;1815318;79;21145;-69
2021/05/08 05:29:10;;;;;;;2.85;2.30;;;;;;;18.97;54.95;98775.95;1815150;78;21130;-70
2021/05/08 05:31:39;;;;;;;2.60;2.35;;;;;;;18.99;54.91;98783.79;1817275;78;21338;-69
2021/05/08 05:34:06;;;;;;;2.65;2.20;;;;;;;18.99;54.87;98784.59;1816621;78;21205;-69
2021/05/08 05:36:34;;;;;;;1.95;1.85;;;;;;;19.00;54.86;98787.55;1820115;78;21126;-69
2021/05/08 05:39:02;;;;;;;2.87;2.52;;;;;;;19.01;54.84;98791.89;1816969;78;21117;-70
2021/05/08 05:41:29;;;;;;;2.80;2.50;;;;;;;19.02;54.82;98800.23;1818669;78;21125;-70
2021/05/08 05:43:56;;;;;;;2.27;2.08;;;;;;;19.03;54.79;98793.00;1805940;78;22806;-70
2021/05/08 05:46:24;;;;;;;2.22;2.05;;;;;;;19.04;54.75;98795.45;1806649;78;21180;-68
2021/05/08 05:48:52;;;;;;;2.10;1.82;;;;;;;19.05;54.73;98791.68;1806919;78;21138;-69
2021/05/08 05:51:20;;;;;;;3.05;2.30;;;;;;;19.05;54.74;98791.68;1807790;78;21134;-69
2021/05/08 05:53:55;;;;;;;2.52;2.33;;;;;;;19.08;54.68;98800.32;1815599;78;21133;-69
2021/05/08 05:56:16;;;;;;;2.45;2.22;;;;;;;19.09;54.66;98787.16;1814252;78;21360;-69
2021/05/08 05:58:45;;;;;;;2.40;2.20;;;;;;;19.11;54.66;98789.08;1815168;78;21129;-68
2021/05/08 06:01:12;;;;;;;2.58;2.37;;;;;;;19.13;54.63;98792.33;1817565;78;21590;-68
2021/05/08 06:03:39;;;;;;;2.47;2.27;;;;;;;19.13;54.64;98798.52;1816740;78;21605;-69
2021/05/08 06:06:08;;;;;;;2.35;2.15;;;;;;;19.15;54.61;98796.40;1820143;78;21098;-70
2021/05/08 06:08:36;;;;;;;2.90;2.37;;;;;;;19.16;54.59;98793.16;1819258;78;21350;-70
2021/05/08 06:11:05;;;;;;;2.35;2.15;;;;;;;19.16;54.57;98791.81;1816698;79;21180;-70
2021/05/08 06:13:33;;;;;;;2.30;2.08;;;;;;;19.17;54.54;98805.04;1816983;79;21562;-69
2021/05/08 06:16:02;;;;;;;2.35;2.15;;;;;;;19.18;54.55;98814.77;1803652;79;21142;-69
2021/05/08 06:18:30;;;;;;;2.65;2.40;;;;;;;19.18;54.51;98822.84;1768293;79;21741;-69
2021/05/08 06:20:57;;;;;;;2.47;2.20;;;;;;;19.18;54.53;98817.45;1812634;79;21362;-69
2021/05/08 06:23:25;;;;;;;2.30;2.10;;;;;;;19.19;54.52;98819.61;1816697;79;21125;-69
2021/05/08 06:25:53;;;;;;;2.55;2.35;;;;;;;19.18;54.52;98820.14;1816954;79;21149;-69
2021/05/08 06:28:20;;;;;;;2.45;2.25;;;;;;;19.18;54.49;98822.84;1816739;79;21150;-70
2021/05/08 06:30:49;;;;;;;2.30;2.10;;;;;;;19.18;54.49;98830.08;1816902;78;21605;-69
2021/05/08 06:33:16;;;;;;;1.92;1.77;;;;;;;19.18;54.51;98835.46;1816904;79;21187;-69
2021/05/08 06:35:44;;;;;;;2.12;1.85;;;;;;;19.16;54.49;98838.42;1816923;79;21609;-69
2021/05/08 06:38:12;;;;;;;2.27;2.08;;;;;;;19.16;54.51;98840.28;1816895;79;21090;-70
2021/05/08 06:40:39;;;;;;;2.58;2.37;;;;;;;19.16;54.50;98845.66;1816902;79;21577;-70
2021/05/08 06:44:07;;;;;;;2.77;2.35;;;;;;;19.19;54.52;98846.53;1846882;75;22608;-69
2021/05/08 06:46:36;;;;;;;2.40;2.20;;;;;;;19.12;54.56;98842.64;1777531;79;21228;-69
2021/05/08 06:49:04;;;;;;;2.40;2.20;;;;;;;19.12;54.55;98843.18;1784604;78;21249;-69
2021/05/08 06:51:31;;;;;;;2.35;2.15;;;;;;;19.12;54.58;98848.56;1816440;78;21126;-70
2021/05/08 06:53:59;;;;;;;2.77;2.20;;;;;;;19.12;54.58;98851.25;1793183;79;21123;-70
2021/05/08 06:56:28;;;;;;;2.35;2.15;;;;;;;19.12;54.58;98855.30;1817361;77;21182;-69
2021/05/08 06:58:55;;;;;;;2.25;2.05;;;;;;;19.10;54.60;98850.69;1815295;78;21133;-69
2021/05/08 07:01:23;;;;;;;2.35;2.15;;;;;;;19.09;54.63;98856.61;1789032;78;21385;-70
2021/05/08 07:03:50;;;;;;;2.83;2.40;;;;;;;19.08;54.62;98852.81;1807802;77;21028;-71
2021/05/08 07:06:18;;;;;;;2.40;2.12;;;;;;;19.08;54.63;98866.27;1815677;79;21180;-71
2021/05/08 07:08:46;;;;;;;2.30;2.10;;;;;;;19.08;54.66;98866.27;1817111;77;21192;-70
2021/05/08 07:11:14;;;;;;;2.22;2.02;;;;;;;19.05;54.68;98867.05;1814246;78;21093;-71
2021/05/08 07:13:42;;;;;;;2.50;2.22;;;;;;;19.06;54.63;98871.89;1816472;77;21369;-70
2021/05/08 07:16:09;;;;;;;2.40;1.90;;;;;;;19.05;54.68;98879.70;1814230;78;21158;-70
2021/05/08 07:18:37;;;;;;;2.37;2.17;;;;;;;19.04;54.67;98892.86;1783110;78;21202;-69
2021/05/08 07:21:05;;;;;;;2.33;2.12;;;;;;;19.03;54.70;98893.39;1812482;78;21127;-70
2021/05/08 07:23:33;;;;;;;2.45;2.25;;;;;;;19.02;54.70;98893.09;1814192;78;21163;-70
2021/05/08 07:26:00;;;;;;;2.58;2.37;;;;;;;19.02;54.70;98899.02;1807567;77;21392;-69
2021/05/08 07:28:28;;;;;;;2.50;2.30;;;;;;;19.01;54.75;98898.20;1790261;78;21193;-70
2021/05/08 07:30:56;;;;;;;2.40;2.20;;;;;;;19.01;54.69;98906.82;1814170;77;21138;-70
2021/05/08 07:33:23;;;;;;;2.30;2.10;;;;;;;19.01;54.69;98914.36;1814179;78;21123;-71
2021/05/08 07:35:51;;;;;;;2.27;2.08;;;;;;;19.00;54.70;98919.44;1816478;77;21157;-71
2021/05/08 07:38:19;;;;;;;2.33;2.12;;;;;;;19.01;54.70;98932.39;1797138;78;21193;-70
2021/05/08 07:40:51;;;;;;;2.40;2.20;;;;;;;19.00;54.68;98944.20;1798224;78;21130;-70
2021/05/08 07:43:18;;;;;;;1.80;1.70;;;;;;;18.99;54.75;98956.04;1798980;78;21165;-70
2021/05/08 07:45:46;;;;;;;2.35;2.08;;;;;;;18.98;54.70;98956.55;1814946;78;21144;-70
2021/05/08 07:48:14;;;;;;;2.20;2.00;;;;;;;18.99;54.74;98972.19;1834215;78;21133;-70
2021/05/08 07:50:42;;;;;;;1.90;1.72;;;;;;;18.97;54.68;98971.08;1834007;78;22039;-71
2021/05/08 07:53:10;;;;;;;2.37;1.87;;;;;;;18.98;54.66;98982.12;1832334;76;21171;-71
2021/05/08 07:55:37;;;;;;;2.12;1.87;;;;;;;19.00;54.63;98983.23;1810335;76;21557;-70
2021/05/08 07:58:05;;;;;;;2.10;1.90;;;;;;;18.99;54.59;98983.77;1831813;78;21156;-71
2021/05/08 08:00:34;;;;;;;2.42;2.20;;;;;;;18.99;54.53;98981.08;1827100;78;21098;-71
2021/05/08 08:03:02;;;;;;;1.85;1.75;;;;;;;19.01;54.45;98988.37;1801381;78;21321;-70
2021/05/08 08:05:31;;;;;;;2.00;1.82;;;;;;;19.01;54.44;98993.76;1828811;78;21156;-70
2021/05/08 08:07:58;;;;;;;2.00;1.90;;;;;;;19.03;54.41;98998.37;1832946;78;21146;-70
2021/05/08 08:10:26;;;;;;;2.02;1.70;;;;;;;19.05;54.38;99007.02;1829956;76;21156;-70
2021/05/08 08:12:54;;;;;;;1.90;1.70;;;;;;;19.08;54.36;99008.94;1814345;76;21160;-69
2021/05/08 08:15:22;;;;;;;1.80;1.70;;;;;;;19.09;54.29;99010.05;1810971;78;21342;-70
2021/05/08 08:17:49;;;;;;;2.22;2.08;;;;;;;19.11;54.25;99023.27;1811021;76;21184;-69
2021/05/08 08:20:17;;;;;;;2.42;2.10;;;;;;;19.13;54.22;99027.34;1833294;78;21594;-70
2021/05/08 08:22:45;;;;;;;2.05;1.87;;;;;;;19.15;54.20;99017.69;1834071;78;21149;-71
2021/05/08 08:25:13;;;;;;;2.12;1.92;;;;;;;19.17;54.12;99016.92;1834197;78;21614;-71
2021/05/08 08:27:41;;;;;;;2.25;1.82;;;;;;;19.20;54.07;99019.11;1828521;78;21366;-71
2021/05/08 08:30:11;;;;;;;2.12;1.87;;;;;;;19.21;54.01;99022.91;1817241;78;21173;-70
2021/05/08 08:32:39;;;;;;;2.27;2.08;;;;;;;19.25;53.99;99024.05;1832272;78;21596;-70
2021/05/08 08:35:08;;;;;;;2.20;2.00;;;;;;;19.29;53.95;99035.70;1818613;78;21157;-69
2021/05/08 08:37:35;;;;;;;1.80;1.70;;;;;;;19.32;54.02;99042.77;1826032;76;21585;-70
2021/05/08 08:40:04;;;;;;;2.08;1.87;;;;;;;19.35;54.05;99033.37;1832677;78;21431;-69
2021/05/08 08:42:31;;;;;;;2.20;2.00;;;;;;;19.39;54.00;99051.52;1809085;78;21633;-70
2021/05/08 08:44:58;;;;;;;2.58;2.20;;;;;;;19.44;53.96;99046.20;1779611;76;21170;-70
2021/05/08 08:47:29;;;;;;;2.30;2.10;;;;;;;19.48;53.98;99039.80;1813537;79;21190;-70
2021/05/08 08:50:09;;;;;;;2.05;1.80;;;;;;;19.53;53.90;99045.29;1815162;77;21164;-70
2021/05/08 08:52:36;;;;;;;1.98;1.87;;;;;;;19.57;53.81;99046.97;1813644;78;21354;-71
2021/05/08 08:55:07;;;;;;;1.80;1.70;;;;;;;19.59;53.81;99046.20;1815825;78;21125;-70
2021/05/08 08:57:38;;;;;;;2.10;1.90;;;;;;;19.61;53.79;99049.45;1764407;79;21158;-71
2021/05/08 09:00:12;;;;;;;1.80;1.70;;;;;;;19.64;53.76;99047.61;1800444;78;21075;-70
2021/05/08 09:02:41;;;;;;;1.77;1.67;;;;;;;19.66;53.71;99060.30;1797330;78;21186;-70
2021/05/08 09:05:12;;;;;;;1.90;1.70;;;;;;;19.69;53.69;99053.63;1799386;78;21367;-71
2021/05/08 09:07:44;;;;;;;2.08;1.87;;;;;;;19.71;53.70;99053.66;1813550;79;21206;-70
2021/05/08 09:10:22;;;;;;;;;;;;;;;19.71;53.63;99056.35;1818403;77;21169;-71
2021/05/08 09:12:51;;;;;;;1.87;1.77;;;;;;;19.72;53.54;99062.08;1728327;81;20284;-71
2021/05/08 09:15:37;;;;;;;1.70;1.60;;;;;;;19.65;53.68;99058.69;1748694;79;21162;-70
2021/05/08 09:18:06;;;;;;;1.80;1.70;;;;;;;19.67;53.57;99061.95;1729927;81;21283;-70
2021/05/08 09:20:46;;;;;;;1.75;1.65;;;;;;;19.68;53.55;99073.00;1746813;81;21103;-70
2021/05/08 09:23:32;;;;;;;2.00;1.80;;;;;;;19.69;53.49;99069.25;1739058;79;21160;-69
2021/05/08 09:26:11;;;;;;;2.00;1.80;;;;;;;19.71;53.47;99075.75;1764739;80;21156;-70
2021/05/08 09:28:43;;;;;;;2.35;1.90;;;;;;;19.71;53.42;99069.83;1768086;80;21609;-70
2021/05/08 09:31:13;;;;;;;1.80;1.70;;;;;;;19.71;53.41;99072.52;1767127;80;21378;-72
2021/05/08 09:33:51;;;;;;;1.50;1.40;;;;;;;19.73;53.49;99075.01;1752698;81;21178;-70
2021/05/08 09:36:19;;;;;;;1.90;1.80;;;;;;;19.74;53.42;99076.12;1746859;80;21128;-71
2021/05/08 09:38:47;;;;;;;1.70;1.60;;;;;;;19.75;53.36;99076.92;1771233;80;21126;-70
2021/05/08 09:41:16;;;;;;;2.25;1.70;;;;;;;19.75;53.32;99082.31;1771945;79;21115;-70
2021/05/08 09:43:45;;;;;;;1.80;1.67;;;;;;;19.75;53.29;99080.97;1769189;80;21139;-71
2021/05/08 09:49:09;;;;;;;1.67;1.57;;;;;;;19.83;53.20;99091.34;1829509;77;22672;-70
2021/05/08 09:51:37;;;;;;;1.62;1.52;;;;;;;19.79;53.18;99099.09;1817731;78;21116;-71
2021/05/08 09:54:13;;;;;;;1.60;1.50;;;;;;;19.80;53.22;99098.58;1826429;78;21360;-69
2021/05/08 09:56:48;;;;;;;1.75;1.65;;;;;;;19.81;53.18;99103.70;1826429;78;21000;-70
2021/05/08 09:59:36;;;;;;;2.08;1.55;;;;;;;19.82;53.23;99097.80;1826393;78;21133;-70
2021/05/08 10:02:10;;;;;;;1.80;1.70;;;;;;;19.84;53.12;99094.33;1826389;78;21115;-70
2021/05/08 10:04:48;;;;;;;2.27;2.08;;;;;;;19.83;53.12;99104.81;1826365;78;21151;-70
2021/05/08 10:07:21;;;;;;;2.17;1.98;;;;;;;19.83;53.05;99109.66;1826345;78;22236;-71
2021/05/08 10:09:54;;;;;;;1.75;1.65;;;;;;;19.83;53.02;99112.36;1826420;78;21583;-70
2021/05/08 10:12:24;;;;;;;1.67;1.57;;;;;;;19.83;52.99;99113.70;1826389;78;21144;-70
2021/05/08 10:14:55;;;;;;;1.67;1.57;;;;;;;19.84;52.97;99118.59;1826363;78;21104;-71
2021/05/08 10:17:25;;;;;;;1.77;1.67;;;;;;;19.84;52.93;99118.59;1826420;78;21227;-70
2021/05/08 10:20:01;;;;;;;1.60;1.50;;;;;;;19.84;52.92;99120.75;1826682;78;22184;-70
2021/05/08 10:22:35;;;;;;;2.08;1.70;;;;;;;19.84;52.85;99127.48;1825551;78;21395;-70
2021/05/08 10:25:04;;;;;;;1.50;1.40;;;;;;;19.85;52.85;99124.25;1826452;78;21143;-71
2021/05/08 10:27:32;;;;;;;1.60;1.50;;;;;;;19.87;52.85;99133.45;1826389;78;21603;-70
2021/05/08 10:30:00;;;;;;;2.02;1.92;;;;;;;19.88;52.84;99147.22;1826301;78;21159;-71
2021/05/08 10:32:27;;;;;;;1.70;1.60;;;;;;;19.88;52.86;99148.03;1826356;78;22045;-70
2021/05/08 10:35:02;;;;;;;1.70;1.60;;;;;;;19.90;52.79;99153.19;1801000;78;21146;-70
2021/05/08 10:37:30;;;;;;;1.55;1.45;;;;;;;19.91;52.76;99162.35;1817033;79;21098;-70
2021/05/08 10:40:11;;;;;;;1.95;1.65;;;;;;;19.92;52.71;99164.00;1785143;79;21224;-71
2021/05/08 10:42:48;;;;;;;1.90;1.80;;;;;;;19.92;52.66;99158.61;1786286;79;21136;-71
2021/05/08 10:45:24;;;;;;;1.47;1.37;;;;;;;19.92;52.55;99155.11;1794598;79;21519;-70
2021/05/08 10:48:06;;;;;;;1.75;1.50;;;;;;;19.91;52.54;99158.84;1798227;79;21165;-70
2021/05/08 10:50:47;;;;;;;1.70;1.60;;;;;;;19.90;52.42;99157.23;1795038;79;21169;-69
2021/05/08 10:53:16;;;;;;;1.90;1.67;;;;;;;19.87;52.31;99157.16;1817715;78;21101;-71
2021/05/08 10:58:37;;;;;;;1.67;1.50;;;;;;;19.88;52.38;99172.29;1804407;77;22854;-71
2021/05/08 11:01:11;;;;;;;1.60;1.50;;;;;;;19.83;52.31;99174.34;1780178;79;21145;-70
2021/05/08 11:03:53;;;;;;;1.50;1.40;;;;;;;19.81;52.28;99177.01;1800803;79;21353;-70
2021/05/08 11:06:21;;;;;;;1.52;1.42;;;;;;;19.80;52.27;99176.73;1793588;80;21115;-71
2021/05/08 11:08:51;;;;;;;1.60;1.50;;;;;;;19.76;52.30;99195.27;1826411;78;21587;-70
2021/05/08 11:11:25;;;;;;;1.67;1.57;;;;;;;19.76;52.32;99209.24;1817690;78;21159;-71
2021/05/08 11:13:56;;;;;;;1.85;1.57;;;;;;;19.74;52.33;99209.52;1794987;78;21195;-71
2021/05/08 11:16:31;;;;;;;1.50;1.40;;;;;;;19.73;52.32;99221.88;1817641;79;21819;-71
2021/05/08 11:19:01;;;;;;;1.50;1.40;;;;;;;19.70;52.35;99223.66;1817856;78;21597;-69
2021/05/08 11:21:35;;;;;;;2.08;1.87;;;;;;;19.69;52.35;99228.77;1816931;78;21188;-70
2021/05/08 11:24:06;;;;;;;1.70;1.60;;;;;;;19.67;52.37;99223.62;1817282;78;21636;-71
2021/05/08 11:26:41;;;;;;;1.60;1.50;;;;;;;19.67;52.34;99241.67;1818010;78;21656;-71
2021/05/08 11:29:18;;;;;;;1.50;1.40;;;;;;;19.65;52.34;99252.68;1818104;78;21460;-70
2021/05/08 11:31:50;;;;;;;1.47;1.37;;;;;;;19.66;52.36;99248.91;1818054;78;21609;-70
2021/05/08 11:34:27;;;;;;;1.67;1.57;;;;;;;19.67;52.31;99251.10;1814882;78;21146;-70
2021/05/08 11:37:02;;;;;;;1.47;1.37;;;;;;;19.68;52.24;99256.22;1801053;78;21137;-70
2021/05/08 11:39:46;;;;;;;1.40;1.30;;;;;;;19.72;52.29;99261.98;1817950;78;21133;-71
2021/05/08 11:42:20;;;;;;;1.15;1.12;;;;;;;19.76;52.27;99259.09;1817944;78;21348;-70
2021/05/08 11:44:54;;;;;;;1.60;1.50;;;;;;;19.82;52.23;99271.11;1787527;78;21136;-70
2021/05/08 11:47:30;;;;;;;1.17;1.07;;;;;;;19.93;52.09;99276.68;1797335;79;21134;-71
2021/05/08 11:50:17;;;;;;;1.82;1.57;;;;;;;20.00;52.03;99271.97;1812568;78;21195;-71
2021/05/08 11:52:49;;;;;;;1.50;1.40;;;;;;;20.11;51.80;99283.74;1801738;78;21143;-70